JAX weather

Jacksonville International Airport
Jacksonville, Florida, United States

Public forecast

Using degrees Fahrenheit for public forecast. Weather courtesy of forecast.io.

Current aviation weather report (METAR) for Jacksonville International Airport

Retrieved 2019/10/16 22:56 UTC (19 minutes ago):

KJAX 162256Z 31007KT 10SM FEW030 SCT190 BKN250 27/20 A2978 RMK AO2 SLP084 T02720200

Aviation forecast (TAF) for Jacksonville International Airport

Retrieved 2019/10/16 18:22 UTC (5 hours ago):

TAF KJAX 161720Z 1618/1718 26015G23KT P6SM FEW030 SCT060 BKN120 FM170000 27008KT P6SM SCT100 BKN250 FM170600 32007KT P6SM SKC